KFTY/FTY METAR and TAF weather

Enter ICAO airport designator
Station Type Date Time Source
KFTY METAR 2019/10/15 03:53 UTC NOAA

KFTY 150353Z 00000KT 10SM BKN060 17/14 A3011 RMK AO2 SLP192 T01670144


Station Type Date Time Source
KFTY Decoded METAR 2019/10/15 03:53 UTC NOAA

ATLANTA FULTON COUNTY AIRPORT , GA, United States (KFTY) 33-47N 84-31W 263M
Oct 14, 2019 - 11:53 PM EDT / 2019.10.15 0353 UTC
Wind: Calm:0
Visibility: 10 mile(s):0
Sky conditions: mostly cloudy
Temperature: 62.1 F (16.7 C)
Dew Point: 57.9 F (14.4 C)
Relative Humidity: 86%
Pressure (altimeter): 30.11 in. Hg (1019 hPa)
ob: KFTY 150353Z 00000KT 10SM BKN060 17/14 A3011 RMK AO2 SLP192 T01670144
cycle: 4

Station Type Date Time Source
KFTY TAF 2019/10/14 18:24 UTC NOAA

TAF KFTY 141721Z 1418/1518 VRB03KT P6SM SCT250
FM150600 00000KT P6SM SCT070 BKN250
FM151100 VRB03KT P6SM VCSH SCT035 OVC100
FM151400 08004KT 6SM -SHRA BKN035 OVC070
FM151600 09008KT 4SM -SHRA BR OVC015

Example: see airport list